Главная страница
METAR-TAF:

METAR-TAF

Аэропорты :

Oswego County Airport

Фултон, Нью-Йорк, США

широта: 43-21-03N, долгота: 076-23-17W, высота над уровнем моря: 145 м

Текущие метеонаблюдения

Эта сводка был подготовлена 52 минут назад, в 13:54 UTC
Ветер 8 Узел от юго-восточный, изменяющийся между восточный и юго-юго-восточный
Температура 12°C
Влажность 88%
Давление 998 hPa
Видимость: 16.1 км
небольшая облачность на высоте 7500 фута
Сплошная облачность на высоте 9000 фута
небольшой дождь

METAR: KFZY 261354Z AUTO 13008KT 100V160 10SM -RA FEW075 OVC090 12/10 A2947 RMK AO2 SLP980 P0002 T01220100

Время: 10:46 (14:46 UTC)


TAF: отсутствует

Метеонаблюдения и прогнозы для более 4000 аэропортов (сводки METAR и TAF).

Имеющиеся станции представлены на карте желтыми и красными точками.

Чтобы увидеть название станции, наведите на нее мышь.

Затем щелкните, чтобы увидеть метеонаблюдения и метеопрогнозы.

Управление картой: чтобы увеличить масштаб, щелкните зеленые кнопки с черным крестиком; чтобы уменьшить масштаб, щелкните зеленую кнопку с тире; для просмотра соседних карт щелкайте зеленые стрелки.


METAR-TAF: